Date,TemperatureHighF,TemperatureAvgF,TemperatureLowF,DewpointHighF,DewpointAvgF,DewpointLowF,HumidityHigh,HumidityAvg,HumidityLow,PressureMaxIn,PressureMinIn,WindSpeedMaxMPH,WindSpeedAvgMPH,GustSpeedMaxMPH,PrecipitationSumIn
2013-1-1,41.8,34.6,25.9,34.1,29.8,23.9,95,83,70,29.88,29.76,11,2,17,0.01
2013-1-2,43.9,40.2,36.5,37.0,33.1,31.5,85,76,63,30.34,29.84,13,4,20,0.00
2013-1-3,44.6,40.5,36.8,39.9,35.0,31.1,88,81,71,30.36,30.25,17,7,28,0.06
2013-1-4,50.6,47.1,44.4,46.5,42.7,39.4,94,85,68,30.37,30.11,17,6,22,0.36
2013-1-5,49.8,45.9,41.9,45.8,41.9,38.9,92,86,81,30.29,30.10,19,4,24,0.01
2013-1-6,45.6,43.1,40.9,41.6,40.1,38.6,95,89,80,30.27,30.06,13,4,23,0.07
2013-1-7,44.7,39.4,36.9,42.0,37.5,35.1,95,93,89,30.30,30.13,6,1,9,0.09
2013-1-8,43.1,39.6,34.6,40.4,37.8,33.5,97,93,88,30.27,30.11,8,2,13,0.07
2013-1-9,44.4,42.2,41.2,40.7,39.0,36.6,92,89,83,30.14,29.83,10,3,17,0.00
2013-1-10,40.6,38.5,36.8,37.0,34.7,31.9,92,86,79,29.82,29.65,16,5,21,0.09
2013-1-11,35.2,30.0,27.3,32.2,25.3,20.4,95,83,75,29.97,29.66,13,4,18,0.02
2013-1-12,31.3,27.4,24.0,23.4,21.2,18.3,85,77,69,30.04,29.95,8,3,11,0.01
2013-1-13,28.1,26.4,25.0,23.2,21.7,19.9,86,82,75,30.04,30.01,6,2,9,0.00
2013-1-14,28.0,25.5,19.7,26.1,23.0,18.0,94,90,85,30.01,29.85,9,2,11,0.00
2013-1-15,27.7,23.4,14.9,24.8,21.2,13.0,94,91,87,29.89,29.71,6,1,7,0.00
2013-1-16,28.7,27.5,26.4,26.7,25.0,24.2,93,90,87,29.73,29.68,4,0,6,0.00
2013-1-17,29.7,27.4,25.6,25.9,24.0,22.1,91,87,82,29.86,29.69,6,2,9,0.00
2013-1-18,25.5,22.7,21.3,23.5,19.9,18.6,93,89,85,29.86,29.67,4,1,5,0.00
2013-1-19,22.7,21.0,19.5,19.1,17.4,16.0,90,86,79,29.67,29.51,5,1,8,0.00
2013-1-20,27.5,24.5,21.2,24.8,21.3,18.2,90,88,85,29.53,29.42,7,2,8,0.00
2013-1-21,27.6,25.4,21.8,25.2,23.5,19.3,95,93,89,29.55,29.40,5,1,6,0.00
2013-1-22,22.7,21.0,18.7,19.2,16.8,14.6,90,84,79,29.75,29.56,4,1,5,0.00
2013-1-23,24.1,22.2,20.2,20.5,18.4,16.6,88,85,83,29.77,29.74,4,1,5,0.00
2013-1-24,25.1,23.6,21.3,22.1,20.4,17.5,90,87,85,29.95,29.75,6,1,10,0.00
2013-1-25,23.4,18.2,4.6,19.0,14.7,1.8,89,86,82,30.11,29.95,7,1,10,0.00
2013-1-26,18.9,11.5,1.6,14.0,8.1,-1.0,91,86,80,30.07,29.98,10,1,10,0.00
2013-1-27,31.4,25.5,17.3,29.0,22.1,14.0,94,87,83,29.99,29.71,7,1,11,0.00
2013-1-28,38.4,33.9,28.7,33.5,31.3,26.6,95,90,82,30.03,29.72,11,2,11,0.24
2013-1-29,42.9,39.3,33.8,39.9,36.0,32.2,94,88,82,30.02,29.81,16,5,25,0.15
2013-1-30,55.8,48.8,42.3,49.0,44.5,38.0,93,85,72,29.84,29.60,25,7,37,0.30
2013-1-31,48.6,44.7,37.9,39.5,34.8,31.6,92,69,54,29.90,29.71,18,8,30,0.11